Terminal Aerodrome Forecast
Issued by NWS

Home | Current Version | Previous Version | Graphics & Text | Print | Product List | Glossary On
Versions: 1 2 3 4 5 6 7 8 9 10 11 12 13 14 15 16
000
FTUS42 KMHX 060829 AAA
TAFISO
TAF AMD
KISO 060829Z 0608/0706 18003KT 5SM BR BKN006
     FM061300 21007KT P6SM SCT035
     FM061600 21009KT P6SM VCTS SCT040CB
     FM070000 19005KT P6SM BKN250
      AMD LTD TO CLD VIS AND WIND=

USA.gov is the U.S. government's official web portal to all federal, state and local government web resources and services.